Terminal Aerodrome Forecast
Issued by NWS

Home | Current Version | Previous Version | Text Only | Print | Product List | Glossary On
Versions: 1 2 3 4 5 6 7 8 9 10 11 12 13
000
FTUS46 KHNX 130520
TAFFAT
TAF
KFAT 130520Z 1306/1406 00000KT P6SM BKN200
     FM130900 VRB03KT 5SM HZ SCT200
     FM132100 31006KT P6SM SKC=

USA.gov is the U.S. government's official web portal to all federal, state and local government web resources and services.